createdAt,value
2022-09-13T00:01:59.441Z,98364.72
2022-09-13T00:04:25.827Z,98357.56
2022-09-13T00:06:52.124Z,98355.31
2022-09-13T00:09:18.498Z,98348.78
2022-09-13T00:11:45.112Z,98353.09
2022-09-13T00:14:11.411Z,98353.75
2022-09-13T00:16:37.853Z,98346.75
2022-09-13T00:19:04.573Z,98344.94
2022-09-13T00:21:30.869Z,98333.25
2022-09-13T00:23:57.313Z,98340.75
2022-09-13T00:26:27.014Z,98336.25
2022-09-13T00:28:58.430Z,98338.09
2022-09-13T00:31:26.502Z,98347.53
2022-09-13T00:33:53.275Z,98345.50
2022-09-13T00:36:19.981Z,98343.66
2022-09-13T00:38:46.587Z,98336.06
2022-09-13T00:41:18.969Z,98342.47
2022-09-13T00:43:57.454Z,98332.97
2022-09-13T00:46:43.035Z,98333.41
2022-09-13T00:49:15.613Z,98340.22
2022-09-13T00:51:46.052Z,98346.22
2022-09-13T00:54:16.007Z,98344.16
2022-09-13T00:56:50.827Z,98361.03
2022-09-13T00:59:24.952Z,98357.75
2022-09-13T01:01:56.104Z,98369.50
2022-09-13T01:04:26.551Z,98363.09
2022-09-13T01:06:57.161Z,98345.78
2022-09-13T01:09:23.910Z,98347.88
2022-09-13T01:11:56.231Z,98334.69
2022-09-13T01:14:23.954Z,98328.97
2022-09-13T01:16:50.475Z,98329.34
2022-09-13T01:19:17.283Z,98327.53
2022-09-13T01:22:19.032Z,98331.25
2022-09-13T01:25:19.538Z,98332.28
2022-09-13T01:28:00.900Z,98334.53
2022-09-13T01:30:37.877Z,98323.22
2022-09-13T01:33:30.123Z,98317.22
2022-09-13T01:36:15.031Z,98316.41
2022-09-13T01:39:05.131Z,98322.41
2022-09-13T01:41:58.731Z,98318.25
2022-09-13T01:44:43.862Z,98323.22
2022-09-13T01:47:25.858Z,98329.34
2022-09-13T01:50:28.770Z,98329.34
2022-09-13T01:53:17.837Z,98332.47
2022-09-13T01:56:22.588Z,98332.50
2022-09-13T01:59:02.439Z,98334.81
2022-09-13T02:01:47.126Z,98334.19
2022-09-13T02:04:30.764Z,98337.25
2022-09-13T02:07:06.415Z,98336.25
2022-09-13T02:09:38.504Z,98336.69
2022-09-13T02:12:14.885Z,98339.03
2022-09-13T02:14:44.283Z,98336.63
2022-09-13T02:17:16.255Z,98333.56
2022-09-13T02:19:52.876Z,98337.09
2022-09-13T02:22:25.607Z,98343.31
2022-09-13T02:24:56.779Z,98344.34
2022-09-13T02:27:28.910Z,98347.69
2022-09-13T02:30:02.617Z,98344.59
2022-09-13T02:32:40.532Z,98341.72
2022-09-13T02:35:12.093Z,98347.50
2022-09-13T02:37:43.285Z,98358.81
2022-09-13T02:40:15.054Z,98355.53
2022-09-13T02:42:45.079Z,98350.63
2022-09-13T02:45:15.482Z,98359.03
2022-09-13T02:47:44.103Z,98358.22
2022-09-13T02:50:29.366Z,98348.34
2022-09-13T02:53:20.587Z,98352.44
2022-09-13T02:56:05.353Z,98354.91
2022-09-13T02:58:51.787Z,98353.88
2022-09-13T03:01:18.537Z,98355.13
2022-09-13T03:03:44.990Z,98354.91
2022-09-13T03:06:11.520Z,98354.06
2022-09-13T03:08:38.094Z,98349.53
2022-09-13T03:11:36.302Z,98353.03
2022-09-13T03:14:23.965Z,98360.25
2022-09-13T03:17:07.804Z,98363.72
2022-09-13T03:19:47.403Z,98352.44
2022-09-13T03:22:27.784Z,98360.47
2022-09-13T03:25:19.465Z,98345.63
2022-09-13T03:27:55.213Z,98345.63
2022-09-13T03:30:21.570Z,98332.25
2022-09-13T03:33:07.220Z,98333.06
2022-09-13T03:36:02.647Z,98323.81
2022-09-13T03:38:38.305Z,98323.81
2022-09-13T03:41:12.403Z,98318.91
2022-09-13T03:43:44.576Z,98326.50
2022-09-13T03:46:36.478Z,98328.34
2022-09-13T03:49:07.185Z,98321.56
2022-09-13T03:51:33.848Z,98314.03
2022-09-13T03:54:04.796Z,98326.63
2022-09-13T03:56:31.713Z,98342.66
2022-09-13T03:58:58.280Z,98343.50
2022-09-13T04:01:25.026Z,98334.53
2022-09-13T04:03:56.351Z,98338.63
2022-09-13T04:06:23.054Z,98331.41
2022-09-13T04:08:49.567Z,98332.47
2022-09-13T04:11:16.222Z,98328.75
2022-09-13T04:13:42.642Z,98308.66
2022-09-13T04:16:09.258Z,98311.91
2022-09-13T04:18:35.741Z,98325.88
2022-09-13T04:21:03.196Z,98316.44
2022-09-13T04:23:29.834Z,98310.06
2022-09-13T04:26:02.010Z,98311.94
2022-09-13T04:28:28.653Z,98312.75
2022-09-13T04:30:55.189Z,98313.16
2022-09-13T04:33:21.664Z,98317.06
2022-09-13T04:35:47.976Z,98323.44
2022-09-13T04:38:14.383Z,98331.47
2022-09-13T04:40:41.020Z,98328.78
2022-09-13T04:43:07.733Z,98336.41
2022-09-13T04:45:34.145Z,98331.44
2022-09-13T04:48:00.862Z,98331.44
2022-09-13T04:50:27.254Z,98342.56
2022-09-13T04:52:56.418Z,98352.22
2022-09-13T04:55:22.789Z,98354.25
2022-09-13T04:57:53.462Z,98353.22
2022-09-13T05:00:19.825Z,98360.81
2022-09-13T05:02:46.136Z,98363.06
2022-09-13T05:05:12.628Z,98363.66
2022-09-13T05:07:38.949Z,98351.13
2022-09-13T05:10:05.900Z,98339.00
2022-09-13T05:12:32.238Z,98357.47
2022-09-13T05:14:58.701Z,98354.56
2022-09-13T05:17:25.058Z,98351.63
2022-09-13T05:19:51.479Z,98352.66
2022-09-13T05:22:17.819Z,98338.47
2022-09-13T05:24:44.278Z,98353.28
2022-09-13T05:27:10.621Z,98361.09
2022-09-13T05:29:37.179Z,98373.22
2022-09-13T05:32:03.778Z,98370.34
2022-09-13T05:34:30.484Z,98380.84
2022-09-13T05:36:56.844Z,98370.78
2022-09-13T05:39:54.346Z,98377.94
2022-09-13T05:42:09.796Z,98372.56
2022-09-13T05:44:36.586Z,98369.63
2022-09-13T05:47:03.118Z,98375.16
2022-09-13T05:49:29.523Z,98376.19
2022-09-13T05:51:55.856Z,98372.66
2022-09-13T05:54:22.181Z,98372.38
2022-09-13T05:56:48.610Z,98377.66
2022-09-13T05:59:15.101Z,98380.13
2022-09-13T06:01:42.787Z,98372.69
2022-09-13T06:04:09.286Z,98368.50
2022-09-13T06:06:35.630Z,98378.97
2022-09-13T06:09:02.085Z,98378.47
2022-09-13T06:11:28.489Z,98372.69
2022-09-13T06:13:54.844Z,98358.91
2022-09-13T06:16:21.898Z,98351.03
2022-09-13T06:18:49.220Z,98346.88
2022-09-13T06:21:23.787Z,98354.88
2022-09-13T06:23:54.541Z,98367.97
2022-09-13T06:26:26.827Z,98375.69
2022-09-13T06:28:55.138Z,98383.75
2022-09-13T06:31:24.121Z,98381.13
2022-09-13T06:33:57.110Z,98370.16
2022-09-13T06:36:23.759Z,98376.75
2022-09-13T06:38:50.339Z,98383.47
2022-09-13T06:41:19.548Z,98386.34
2022-09-13T06:43:47.037Z,98377.72
2022-09-13T06:46:16.052Z,98374.19
2022-09-13T06:48:44.395Z,98364.44
2022-09-13T06:51:16.192Z,98358.34
2022-09-13T06:53:44.227Z,98360.78
2022-09-13T06:56:19.269Z,98365.25
2022-09-13T06:58:49.198Z,98365.66
2022-09-13T07:01:33.328Z,98361.28
2022-09-13T07:04:03.158Z,98366.59
2022-09-13T07:06:32.243Z,98353.97
2022-09-13T07:09:00.398Z,98347.34
2022-09-13T07:11:30.802Z,98344.16
2022-09-13T07:13:58.775Z,98344.19
2022-09-13T07:16:28.207Z,98350.97
2022-09-13T07:19:04.095Z,98354.00
2022-09-13T07:21:30.453Z,98344.44
2022-09-13T07:23:57.084Z,98353.25
2022-09-13T07:26:24.265Z,98353.31
2022-09-13T07:28:53.236Z,98336.63
2022-09-13T07:31:28.280Z,98335.28
2022-09-13T07:33:57.021Z,98332.94
2022-09-13T07:36:24.661Z,98347.28
2022-09-13T07:38:51.106Z,98351.56
2022-09-13T07:41:20.578Z,98342.31
2022-09-13T07:43:47.651Z,98339.63
2022-09-13T07:46:16.731Z,98335.56
2022-09-13T07:48:45.119Z,98321.78
2022-09-13T07:51:17.324Z,98317.44
2022-09-13T07:53:45.708Z,98317.84
2022-09-13T07:56:15.056Z,98324.66
2022-09-13T07:58:44.035Z,98329.25
2022-09-13T08:01:17.767Z,98325.47
2022-09-13T08:03:44.983Z,98322.13
2022-09-13T08:06:11.412Z,98308.97
2022-09-13T08:08:37.907Z,98314.34
2022-09-13T08:11:06.460Z,98312.59
2022-09-13T08:13:34.212Z,98305.34
2022-09-13T08:16:05.867Z,98312.69
2022-09-13T08:18:32.811Z,98311.84
2022-09-13T08:21:00.446Z,98313.09
2022-09-13T08:23:27.541Z,98318.81
2022-09-13T08:25:53.912Z,98310.47
2022-09-13T08:28:25.522Z,98298.88
2022-09-13T08:30:54.176Z,98310.97
2022-09-13T08:33:20.667Z,98307.16
2022-09-13T08:35:53.587Z,98317.81
2022-09-13T08:38:20.257Z,98307.72
2022-09-13T08:40:53.726Z,98314.22
2022-09-13T08:43:39.606Z,98308.22
2022-09-13T08:46:12.615Z,98305.50
2022-09-13T08:48:43.858Z,98289.84
2022-09-13T08:51:24.459Z,98280.63
2022-09-13T08:53:51.433Z,98285.38
2022-09-13T08:56:26.438Z,98286.19
2022-09-13T08:59:18.303Z,98288.31
2022-09-13T09:02:07.921Z,98291.00
2022-09-13T09:04:54.931Z,98281.75
2022-09-13T09:07:26.141Z,98277.66
2022-09-13T09:10:02.769Z,98274.09
2022-09-13T09:12:53.166Z,98271.25
2022-09-13T09:16:02.199Z,98260.31
2022-09-13T09:18:41.951Z,98270.47
2022-09-13T09:21:15.118Z,98267.13
2022-09-13T09:23:52.375Z,98268.69
2022-09-13T09:26:26.864Z,98266.41
2022-09-13T09:28:58.714Z,98265.66
2022-09-13T09:31:43.852Z,98271.31
2022-09-13T09:34:51.880Z,98265.47
2022-09-13T09:37:23.051Z,98275.06
2022-09-13T09:39:50.292Z,98266.41
2022-09-13T09:42:20.985Z,98272.31
2022-09-13T09:44:52.366Z,98257.31
2022-09-13T09:47:29.578Z,98255.22
2022-09-13T09:50:03.816Z,98263.34
2022-09-13T09:52:42.927Z,98269.09
2022-09-13T09:55:24.461Z,98270.06
2022-09-13T09:58:02.631Z,98263.81
2022-09-13T10:00:32.447Z,98260.84
2022-09-13T10:03:02.634Z,98270.09
2022-09-13T10:05:29.035Z,98270.91
2022-09-13T10:07:59.201Z,98282.13
2022-09-13T10:10:35.385Z,98282.25
2022-09-13T10:13:01.880Z,98286.47
2022-09-13T10:15:31.741Z,98291.47
2022-09-13T10:18:32.953Z,98289.88
2022-09-13T10:21:22.764Z,98285.34
2022-09-13T10:23:50.744Z,98288.31
2022-09-13T10:26:20.629Z,98286.53
2022-09-13T10:29:02.356Z,98283.22
2022-09-13T10:31:34.330Z,98287.00
2022-09-13T10:34:05.073Z,98283.72
2022-09-13T10:36:52.419Z,98274.78
2022-09-13T10:39:21.886Z,98280.09
2022-09-13T10:42:05.449Z,98269.69
2022-09-13T10:44:45.079Z,98266.91
2022-09-13T10:47:22.090Z,98267.41
2022-09-13T10:49:51.731Z,98260.88
2022-09-13T10:52:26.910Z,98251.56
2022-09-13T10:54:54.422Z,98252.09
2022-09-13T10:57:34.936Z,98250.38
2022-09-13T11:00:02.259Z,98259.34
2022-09-13T11:02:41.883Z,98262.22
2022-09-13T11:05:17.378Z,98260.88
2022-09-13T11:07:52.538Z,98267.19
2022-09-13T11:10:21.764Z,98259.25
2022-09-13T11:13:30.795Z,98254.31
2022-09-13T11:16:33.930Z,98255.59
2022-09-13T11:19:19.051Z,98262.28
2022-09-13T11:21:58.161Z,98260.03
2022-09-13T11:24:39.629Z,98259.56
2022-09-13T11:27:42.600Z,98253.88
2022-09-13T11:30:20.216Z,98254.41
2022-09-13T11:33:15.236Z,98245.03
2022-09-13T11:36:15.073Z,98249.94
2022-09-13T11:39:02.564Z,98245.44
2022-09-13T11:41:34.906Z,98247.59
2022-09-13T11:44:18.655Z,98252.91
2022-09-13T11:46:58.514Z,98251.66
2022-09-13T11:49:48.630Z,98245.69
2022-09-13T11:52:41.063Z,98245.03
2022-09-13T11:55:13.191Z,98253.09
2022-09-13T11:57:46.210Z,98258.88
2022-09-13T12:00:21.769Z,98257.47
2022-09-13T12:03:11.097Z,98255.03
2022-09-13T12:06:06.999Z,98236.63
2022-09-13T12:08:42.482Z,98243.09
2022-09-13T12:11:16.318Z,98242.47
2022-09-13T12:14:07.611Z,98235.50
2022-09-13T12:16:42.991Z,98226.75
2022-09-13T12:19:22.691Z,98228.50
2022-09-13T12:21:51.764Z,98221.72
2022-09-13T12:24:56.626Z,98225.22
2022-09-13T12:27:45.438Z,98223.56
2022-09-13T12:30:21.220Z,98233.56
2022-09-13T12:32:48.458Z,98231.16
2022-09-13T12:35:35.655Z,98225.50
2022-09-13T12:38:14.270Z,98222.06
2022-09-13T12:41:08.556Z,98226.88
2022-09-13T12:43:46.734Z,98217.50
2022-09-13T12:46:28.367Z,98214.94
2022-09-13T12:49:07.625Z,98224.09
2022-09-13T12:51:56.183Z,98216.63
2022-09-13T12:54:39.468Z,98209.59
2022-09-13T12:57:29.999Z,98207.34
2022-09-13T13:00:34.703Z,98207.88
2022-09-13T13:03:09.209Z,98198.59
2022-09-13T13:05:39.910Z,98193.00
2022-09-13T13:08:21.319Z,98184.38
2022-09-13T13:11:10.221Z,98185.47
2022-09-13T13:13:43.836Z,98175.19
2022-09-13T13:16:28.784Z,98171.47
2022-09-13T13:19:00.436Z,98157.53
2022-09-13T13:21:29.295Z,98157.63
2022-09-13T13:24:17.407Z,98153.63
2022-09-13T13:26:57.550Z,98149.66
2022-09-13T13:29:25.016Z,98137.91
2022-09-13T13:31:57.374Z,98135.88
2022-09-13T13:34:23.704Z,98132.06
2022-09-13T13:36:55.322Z,98130.59
2022-09-13T13:39:24.637Z,98133.31
2022-09-13T13:42:26.340Z,98128.94
2022-09-13T13:44:52.679Z,98138.13
2022-09-13T13:47:19.103Z,98141.09
2022-09-13T13:49:51.432Z,98127.81
2022-09-13T13:52:20.821Z,98132.75
2022-09-13T13:54:47.167Z,98124.53
2022-09-13T13:57:28.350Z,98121.59
2022-09-13T14:00:16.432Z,98116.50
2022-09-13T14:02:49.143Z,98117.47
2022-09-13T14:05:44.081Z,98120.09
2022-09-13T14:08:44.025Z,98112.38
2022-09-13T14:11:26.565Z,98108.34
2022-09-13T14:14:14.421Z,98107.72
2022-09-13T14:16:43.595Z,98099.66
2022-09-13T14:19:17.832Z,98097.47
2022-09-13T14:21:44.517Z,98099.00
2022-09-13T14:24:19.796Z,98090.34
2022-09-13T14:26:51.936Z,98095.59
2022-09-13T14:29:21.242Z,98094.78
2022-09-13T14:31:55.191Z,98092.06
2022-09-13T14:34:27.737Z,98090.56
2022-09-13T14:36:57.365Z,98083.34
2022-09-13T14:39:24.871Z,98083.88
2022-09-13T14:41:59.464Z,98080.66
2022-09-13T14:44:29.086Z,98078.34
2022-09-13T14:47:01.742Z,98074.22
2022-09-13T14:49:33.736Z,98075.78
2022-09-13T14:52:05.271Z,98078.56
2022-09-13T14:54:43.401Z,98075.09
2022-09-13T14:57:28.210Z,98080.16
2022-09-13T15:00:14.894Z,98072.59
2022-09-13T15:02:48.504Z,98067.88
2022-09-13T15:05:18.610Z,98062.38
2022-09-13T15:07:45.572Z,98061.94
2022-09-13T15:10:17.970Z,98051.28
2022-09-13T15:15:19.289Z,98034.28
2022-09-13T15:17:59.275Z,98032.69
2022-09-13T15:20:29.050Z,98025.44
2022-09-13T15:22:56.416Z,98021.91
2022-09-13T15:25:30.032Z,98025.78
2022-09-13T15:27:58.136Z,98014.34
2022-09-13T15:30:31.466Z,98012.44
2022-09-13T15:33:22.597Z,98009.78
2022-09-13T15:35:49.137Z,98008.69
2022-09-13T15:38:20.179Z,98000.47
2022-09-13T15:40:56.930Z,98001.97
2022-09-13T15:43:23.884Z,97996.81
2022-09-13T15:45:50.608Z,98001.97
2022-09-13T15:48:26.559Z,97998.75
2022-09-13T15:51:11.360Z,98006.78
2022-09-13T15:53:40.342Z,98004.34
2022-09-13T15:56:08.005Z,97994.19
2022-09-13T15:58:35.727Z,97991.94
2022-09-13T16:01:02.766Z,97979.22
2022-09-13T16:03:29.567Z,97980.69
2022-09-13T16:05:56.472Z,97971.78
2022-09-13T16:08:23.933Z,97960.84
2022-09-13T16:10:50.900Z,97958.06
2022-09-13T16:13:17.362Z,97953.72
2022-09-13T16:15:43.794Z,97950.19
2022-09-13T16:18:10.406Z,97944.50
2022-09-13T16:20:36.968Z,97942.25
2022-09-13T16:23:03.603Z,97940.94
2022-09-13T16:25:30.081Z,97932.94
2022-09-13T16:27:56.415Z,97933.88
2022-09-13T16:30:22.974Z,97923.06
2022-09-13T16:32:49.699Z,97925.00
2022-09-13T16:35:16.065Z,97925.25
2022-09-13T16:37:43.182Z,97927.72
2022-09-13T16:40:10.654Z,97933.44
2022-09-13T16:42:37.582Z,97931.75
2022-09-13T16:45:04.528Z,97931.78
2022-09-13T16:47:31.076Z,97928.19
2022-09-13T16:49:57.430Z,97927.81
2022-09-13T16:52:24.002Z,97921.97
2022-09-13T16:54:50.415Z,97918.97
2022-09-13T16:57:16.888Z,97917.31
2022-09-13T16:59:43.302Z,97913.88
2022-09-13T17:02:13.054Z,97912.84
2022-09-13T17:04:39.957Z,97902.34
2022-09-13T17:07:06.394Z,97900.94
2022-09-13T17:09:35.735Z,97903.25
2022-09-13T17:12:02.630Z,97899.38
2022-09-13T17:14:29.370Z,97906.13
2022-09-13T17:16:56.962Z,97897.56
2022-09-13T17:19:27.498Z,97908.47
2022-09-13T17:21:54.179Z,97911.94
2022-09-13T17:24:20.493Z,97902.75
2022-09-13T17:26:46.855Z,97905.47
2022-09-13T17:29:14.696Z,97905.09
2022-09-13T17:31:41.976Z,97905.00
2022-09-13T17:34:09.057Z,97893.19
2022-09-13T17:36:36.673Z,97895.81
2022-09-13T17:39:03.281Z,97903.91
2022-09-13T17:41:29.762Z,97886.66
2022-09-13T17:43:56.385Z,97882.19
2022-09-13T17:46:26.471Z,97890.06
2022-09-13T17:48:54.812Z,97883.69
2022-09-13T17:51:23.645Z,97880.13
2022-09-13T17:53:54.173Z,97879.41
2022-09-13T17:56:25.748Z,97883.84
2022-09-13T17:58:52.809Z,97888.91
2022-09-13T18:01:19.432Z,97884.97
2022-09-13T18:03:46.160Z,97873.22
2022-09-13T18:06:13.232Z,97879.72
2022-09-13T18:08:40.196Z,97879.16
2022-09-13T18:11:13.569Z,97878.59
2022-09-13T18:13:42.042Z,97883.66
2022-09-13T18:16:18.708Z,97877.47
2022-09-13T18:18:48.700Z,97885.41
2022-09-13T18:21:16.842Z,97884.19
2022-09-13T18:23:43.278Z,97895.94
2022-09-13T18:26:15.266Z,97892.78
2022-09-13T18:28:42.474Z,97899.91
2022-09-13T18:31:13.138Z,97897.81
2022-09-13T18:33:39.590Z,97899.66
2022-09-13T18:36:07.221Z,97899.72
2022-09-13T18:38:40.253Z,97909.00
2022-09-13T18:41:09.625Z,97917.50
2022-09-13T18:43:38.697Z,97918.38
2022-09-13T18:46:07.743Z,97925.47
2022-09-13T18:48:42.454Z,97919.63
2022-09-13T18:51:11.283Z,97915.59
2022-09-13T18:53:38.176Z,97915.88
2022-09-13T18:56:07.293Z,97915.91
2022-09-13T18:58:36.771Z,97917.84
2022-09-13T19:01:10.182Z,97916.81
2022-09-13T19:03:37.497Z,97923.16
2022-09-13T19:06:21.887Z,97930.03
2022-09-13T19:08:49.961Z,97926.22
2022-09-13T19:11:42.107Z,97932.53
2022-09-13T19:14:04.335Z,97943.16
2022-09-13T19:16:30.945Z,97935.34
2022-09-13T19:18:57.518Z,97939.19
2022-09-13T19:21:31.168Z,97937.84
2022-09-13T19:24:00.995Z,97931.91
2022-09-13T19:26:32.197Z,97945.44
2022-09-13T19:29:01.250Z,97949.78
2022-09-13T19:31:28.191Z,97940.28
2022-09-13T19:33:56.036Z,97947.91
2022-09-13T19:36:24.898Z,97942.50
2022-09-13T19:38:52.518Z,97945.72
2022-09-13T19:41:20.987Z,97939.50
2022-09-13T19:43:47.445Z,97944.66
2022-09-13T19:46:16.029Z,97950.06
2022-09-13T19:48:44.793Z,97945.19
2022-09-13T19:51:13.854Z,97948.47
2022-09-13T19:54:04.119Z,97949.63
2022-09-13T19:56:31.790Z,97965.34
2022-09-13T19:58:59.191Z,97968.03
2022-09-13T20:01:28.169Z,97969.16
2022-09-13T20:03:59.959Z,97957.56
2022-09-13T20:06:28.024Z,97959.41
2022-09-13T20:08:59.057Z,97958.41
2022-09-13T20:11:25.869Z,97963.56
2022-09-13T20:13:52.625Z,97965.75
2022-09-13T20:16:21.736Z,97948.94
2022-09-13T20:18:48.468Z,97953.03
2022-09-13T20:21:15.210Z,97945.44
2022-09-13T20:23:42.824Z,97943.53
2022-09-13T20:26:19.452Z,97941.66
2022-09-13T20:28:47.309Z,97941.94
2022-09-13T20:31:14.746Z,97937.31
2022-09-13T20:33:42.140Z,97941.66
2022-09-13T20:36:13.878Z,97943.84
2022-09-13T20:38:41.675Z,97947.06
2022-09-13T20:41:13.834Z,97939.78
2022-09-13T20:43:40.740Z,97942.50
2022-09-13T20:46:08.420Z,97934.38
2022-09-13T20:48:35.059Z,97926.81
2022-09-13T20:51:07.400Z,97927.09
2022-09-13T20:53:33.735Z,97926.53
2022-09-13T20:56:07.455Z,97930.31
2022-09-13T20:58:35.124Z,97937.34
2022-09-13T21:01:07.311Z,97926.00
2022-09-13T21:03:38.607Z,97923.28
2022-09-13T21:06:06.784Z,97911.13
2022-09-13T21:08:33.470Z,97910.84
2022-09-13T21:11:02.135Z,97912.19
2022-09-13T21:13:39.647Z,97913.81
2022-09-13T21:16:14.573Z,97923.28
2022-09-13T21:18:41.504Z,97918.44
2022-09-13T21:21:10.665Z,97917.88
2022-09-13T21:23:37.326Z,97895.41
2022-09-13T21:26:04.941Z,97902.44
2022-09-13T21:28:32.368Z,97895.69
2022-09-13T21:31:00.435Z,97896.78
2022-09-13T21:33:27.198Z,97901.34
2022-09-13T21:35:58.574Z,97903.28
2022-09-13T21:38:30.344Z,97898.94
2022-09-13T21:41:02.875Z,97896.25
2022-09-13T21:43:29.657Z,97897.59
2022-09-13T21:46:19.435Z,97909.50
2022-09-13T21:48:48.196Z,97901.94
2022-09-13T21:51:16.362Z,97908.69
2022-09-13T21:53:44.079Z,97907.34
2022-09-13T21:56:12.546Z,97909.78
2022-09-13T21:58:39.436Z,97901.94
2022-09-13T22:01:11.975Z,97899.50
2022-09-13T22:03:41.107Z,97900.56
2022-09-13T22:06:08.803Z,97899.22
2022-09-13T22:08:37.075Z,97890.56
2022-09-13T22:11:09.401Z,97881.91
2022-09-13T22:13:37.724Z,97880.84
2022-09-13T22:16:09.575Z,97881.34
2022-09-13T22:18:36.584Z,97879.47
2022-09-13T22:21:08.299Z,97877.84
2022-09-13T22:23:35.765Z,97876.22
2022-09-13T22:26:13.713Z,97879.47
2022-09-13T22:28:40.101Z,97872.19
2022-09-13T22:31:15.512Z,97870.56
2022-09-13T22:33:42.858Z,97855.94
2022-09-13T22:36:12.093Z,97848.13
2022-09-13T22:38:39.956Z,97837.28
2022-09-13T22:41:10.624Z,97834.84
2022-09-13T22:43:38.288Z,97821.56
2022-09-13T22:46:11.285Z,97822.88
2022-09-13T22:48:38.164Z,97822.56
2022-09-13T22:51:04.631Z,97819.97
2022-09-13T22:53:32.654Z,97828.94
2022-09-13T22:56:08.211Z,97828.72
2022-09-13T22:58:34.605Z,97838.22
2022-09-13T23:01:09.602Z,97843.91
2022-09-13T23:03:37.865Z,97847.97
2022-09-13T23:06:04.665Z,97847.44
2022-09-13T23:08:31.912Z,97845.03
2022-09-13T23:11:09.744Z,97842.56
2022-09-13T23:13:36.194Z,97838.56
2022-09-13T23:16:04.141Z,97837.22
2022-09-13T23:18:32.370Z,97843.16
2022-09-13T23:20:59.179Z,97835.59
2022-09-13T23:23:26.579Z,97839.94
2022-09-13T23:25:53.225Z,97840.75
2022-09-13T23:28:19.734Z,97845.09
2022-09-13T23:30:46.111Z,97833.75
2022-09-13T23:33:12.631Z,97831.84
2022-09-13T23:35:39.247Z,97819.44
2022-09-13T23:38:05.641Z,97820.81
2022-09-13T23:40:32.186Z,97815.66
2022-09-13T23:42:58.628Z,97814.84
2022-09-13T23:45:25.006Z,97819.19
2022-09-13T23:47:52.531Z,97807.84
2022-09-13T23:50:18.964Z,97809.19
2022-09-13T23:52:45.264Z,97799.44
2022-09-13T23:55:11.901Z,97801.63
2022-09-13T23:57:38.479Z,97800.25
